createdAt,value
2023-03-16T00:00:30.383Z,7.20
2023-03-16T00:01:30.174Z,7.10
2023-03-16T00:02:30.349Z,6.60
2023-03-16T00:03:30.479Z,6.90
2023-03-16T00:04:30.295Z,7.00
2023-03-16T00:05:30.346Z,6.80
2023-03-16T00:06:30.080Z,6.50
2023-03-16T00:07:30.107Z,6.60
2023-03-16T00:08:30.314Z,6.50
2023-03-16T00:09:30.265Z,6.60
2023-03-16T00:10:30.278Z,6.50
2023-03-16T00:11:30.294Z,6.70
2023-03-16T00:12:30.149Z,5.80
2023-03-16T00:13:30.169Z,6.20
2023-03-16T00:14:30.194Z,6.50
2023-03-16T00:15:30.216Z,6.30
2023-03-16T00:16:30.256Z,6.30
2023-03-16T00:17:30.275Z,6.20
2023-03-16T00:18:30.174Z,6.20
2023-03-16T00:19:30.160Z,6.10
2023-03-16T00:20:30.161Z,6.30
2023-03-16T00:21:30.079Z,6.40
2023-03-16T00:22:29.922Z,6.30
2023-03-16T00:23:29.969Z,6.10
2023-03-16T00:24:29.906Z,5.90
2023-03-16T00:25:30.050Z,6.40
2023-03-16T00:26:30.059Z,6.10
2023-03-16T00:27:30.138Z,5.90
2023-03-16T00:28:30.057Z,6.20
2023-03-16T00:29:30.053Z,6.00
2023-03-16T00:30:30.057Z,5.90
2023-03-16T00:31:29.988Z,5.50
2023-03-16T00:32:30.115Z,5.30
2023-03-16T00:33:29.967Z,6.00
2023-03-16T00:34:30.052Z,5.50
2023-03-16T00:35:30.123Z,5.70
2023-03-16T00:36:29.921Z,5.30
2023-03-16T00:37:30.008Z,5.40
2023-03-16T00:38:29.786Z,5.40
2023-03-16T00:39:29.961Z,4.90
2023-03-16T00:40:30.022Z,4.80
2023-03-16T00:41:30.002Z,5.40
2023-03-16T00:42:29.930Z,4.60
2023-03-16T00:43:29.963Z,4.90
2023-03-16T00:44:29.924Z,4.80
2023-03-16T00:45:29.931Z,4.50
2023-03-16T00:46:29.831Z,4.60
2023-03-16T00:47:29.844Z,4.60
2023-03-16T00:48:29.853Z,4.50
2023-03-16T00:49:29.855Z,5.10
2023-03-16T00:50:30.080Z,4.70
2023-03-16T00:51:29.775Z,4.60
2023-03-16T00:52:29.848Z,4.40
2023-03-16T00:53:29.659Z,4.30
2023-03-16T00:54:29.810Z,4.40
2023-03-16T00:55:29.721Z,4.30
2023-03-16T00:56:29.804Z,4.60
2023-03-16T00:57:29.629Z,4.50
2023-03-16T00:58:29.601Z,4.20
2023-03-16T00:59:29.736Z,4.90
2023-03-16T01:00:29.811Z,4.40
2023-03-16T01:01:29.846Z,4.40
2023-03-16T01:02:29.784Z,4.10
2023-03-16T01:03:29.877Z,4.50
2023-03-16T01:04:29.728Z,4.00
2023-03-16T01:05:29.827Z,4.40
2023-03-16T01:06:29.788Z,4.40
2023-03-16T01:07:29.665Z,4.50
2023-03-16T01:08:29.782Z,4.40
2023-03-16T01:09:29.474Z,4.50
2023-03-16T01:10:30.082Z,4.30
2023-03-16T01:11:29.686Z,4.00
2023-03-16T01:12:29.619Z,4.60
2023-03-16T01:13:29.642Z,4.70
2023-03-16T01:14:29.655Z,4.70
2023-03-16T01:15:29.666Z,4.60
2023-03-16T01:16:29.683Z,4.80
2023-03-16T01:17:29.539Z,4.70
2023-03-16T01:18:29.513Z,4.80
2023-03-16T01:19:29.513Z,4.70
2023-03-16T01:20:29.920Z,4.80
2023-03-16T01:21:29.661Z,5.20
2023-03-16T01:22:29.641Z,4.80
2023-03-16T01:23:29.466Z,4.60
2023-03-16T01:24:29.453Z,4.80
2023-03-16T01:25:29.456Z,4.80
2023-03-16T01:26:29.609Z,5.10
2023-03-16T01:27:29.454Z,5.20
2023-03-16T01:28:29.446Z,4.90
2023-03-16T01:29:29.594Z,5.70
2023-03-16T01:30:29.829Z,4.80
2023-03-16T01:31:29.466Z,5.00
2023-03-16T01:32:29.517Z,5.20
2023-03-16T01:33:29.468Z,5.10
2023-03-16T01:34:29.463Z,5.20
2023-03-16T01:35:29.383Z,4.80
2023-03-16T01:36:29.366Z,4.90
2023-03-16T01:37:29.483Z,5.00
2023-03-16T01:38:29.340Z,5.30
2023-03-16T01:39:29.329Z,5.10
2023-03-16T01:40:29.615Z,5.00
2023-03-16T01:41:29.309Z,5.00
2023-03-16T01:42:29.314Z,4.90
2023-03-16T01:43:29.429Z,5.10
2023-03-16T01:44:29.296Z,5.10
2023-03-16T01:45:29.287Z,5.10
2023-03-16T01:46:29.331Z,4.80
2023-03-16T01:47:29.403Z,5.70
2023-03-16T01:48:29.252Z,5.50
2023-03-16T01:49:29.240Z,5.40
2023-03-16T01:50:29.643Z,5.50
2023-03-16T01:51:29.230Z,5.70
2023-03-16T01:52:29.224Z,5.30
2023-03-16T01:53:29.322Z,5.10
2023-03-16T01:54:29.187Z,5.50
2023-03-16T01:55:29.182Z,5.80
2023-03-16T01:56:29.156Z,5.30
2023-03-16T01:57:29.245Z,5.50
2023-03-16T01:58:29.207Z,5.60
2023-03-16T01:59:29.173Z,6.20
2023-03-16T02:00:29.637Z,5.70
2023-03-16T02:01:29.200Z,6.70
2023-03-16T02:02:29.151Z,6.00
2023-03-16T02:03:29.146Z,6.60
2023-03-16T02:04:29.260Z,6.30
2023-03-16T02:05:29.094Z,7.10
2023-03-16T02:06:29.056Z,7.80
2023-03-16T02:07:28.920Z,8.10
2023-03-16T02:08:29.137Z,7.20
2023-03-16T02:09:29.077Z,7.70
2023-03-16T02:10:29.573Z,8.10
2023-03-16T02:11:29.024Z,7.40
2023-03-16T02:12:29.034Z,7.60
2023-03-16T02:13:29.129Z,8.80
2023-03-16T02:14:29.048Z,8.70
2023-03-16T02:15:29.075Z,8.60
2023-03-16T02:16:28.964Z,8.60
2023-03-16T02:17:29.043Z,8.50
2023-03-16T02:18:29.115Z,8.40
2023-03-16T02:19:29.112Z,9.00
2023-03-16T02:20:29.400Z,9.20
2023-03-16T02:21:28.978Z,9.40
2023-03-16T02:22:29.007Z,8.80
2023-03-16T02:23:28.992Z,9.10
2023-03-16T02:24:28.994Z,8.90
2023-03-16T02:25:29.040Z,9.50
2023-03-16T02:26:28.947Z,9.80
2023-03-16T02:27:28.927Z,10.00
2023-03-16T02:28:28.911Z,10.00
2023-03-16T02:29:28.896Z,10.10
2023-03-16T02:30:29.151Z,9.60
2023-03-16T02:31:29.037Z,9.60
2023-03-16T02:32:28.946Z,9.40
2023-03-16T02:33:28.838Z,9.40
2023-03-16T02:34:28.839Z,9.60
2023-03-16T02:35:28.958Z,9.30
2023-03-16T02:36:28.808Z,10.00
2023-03-16T02:37:28.810Z,10.50
2023-03-16T02:38:28.807Z,10.80
2023-03-16T02:39:28.792Z,10.30
2023-03-16T02:40:29.151Z,10.00
2023-03-16T02:41:28.760Z,9.80
2023-03-16T02:42:28.808Z,9.80
2023-03-16T02:43:28.771Z,10.60
2023-03-16T02:44:28.759Z,10.70
2023-03-16T02:45:28.843Z,10.80
2023-03-16T02:46:28.811Z,11.10
2023-03-16T02:47:28.841Z,10.70
2023-03-16T02:48:28.688Z,11.20
2023-03-16T02:49:28.686Z,11.20
2023-03-16T02:50:29.150Z,11.80
2023-03-16T02:51:28.540Z,12.10
2023-03-16T02:52:28.478Z,11.70
2023-03-16T02:53:28.497Z,12.50
2023-03-16T02:54:28.497Z,12.60
2023-03-16T02:55:28.667Z,12.60
2023-03-16T02:56:28.652Z,13.00
2023-03-16T02:57:28.663Z,12.50
2023-03-16T02:58:28.648Z,12.80
2023-03-16T02:59:28.636Z,12.80
2023-03-16T03:00:28.783Z,12.00
2023-03-16T03:01:28.643Z,12.90
2023-03-16T03:02:28.586Z,12.90
2023-03-16T03:03:28.640Z,13.20
2023-03-16T03:04:28.550Z,13.10
2023-03-16T03:05:28.650Z,12.60
2023-03-16T03:06:28.331Z,12.00
2023-03-16T03:07:28.521Z,12.60
2023-03-16T03:08:28.602Z,13.60
2023-03-16T03:09:28.549Z,11.70
2023-03-16T03:10:28.784Z,11.50
2023-03-16T03:11:28.484Z,12.00
2023-03-16T03:12:28.492Z,11.50
2023-03-16T03:13:28.590Z,11.50
2023-03-16T03:14:28.539Z,11.50
2023-03-16T03:15:28.352Z,11.60
2023-03-16T03:16:28.455Z,11.70
2023-03-16T03:17:28.503Z,11.60
2023-03-16T03:18:28.364Z,11.60
2023-03-16T03:19:28.518Z,12.20
2023-03-16T03:20:28.659Z,11.80
2023-03-16T03:21:28.373Z,11.90
2023-03-16T03:22:28.478Z,11.60
2023-03-16T03:23:28.306Z,11.30
2023-03-16T03:24:28.469Z,11.30
2023-03-16T03:25:28.325Z,12.00
2023-03-16T03:26:28.306Z,11.50
2023-03-16T03:27:28.364Z,12.10
2023-03-16T03:28:28.325Z,12.90
2023-03-16T03:29:28.341Z,12.40
2023-03-16T03:30:28.593Z,12.70
2023-03-16T03:31:28.460Z,13.00
2023-03-16T03:32:28.254Z,13.00
2023-03-16T03:33:28.234Z,13.10
2023-03-16T03:34:28.237Z,13.30
2023-03-16T03:35:28.376Z,13.20
2023-03-16T03:36:28.256Z,13.40
2023-03-16T03:37:28.238Z,13.90
2023-03-16T03:38:28.235Z,13.30
2023-03-16T03:39:28.226Z,13.10
2023-03-16T03:40:28.421Z,13.50
2023-03-16T03:41:28.172Z,13.70
2023-03-16T03:42:28.285Z,14.20
2023-03-16T03:43:28.125Z,14.40
2023-03-16T03:44:28.246Z,14.20
2023-03-16T03:45:28.213Z,14.10
2023-03-16T03:46:28.334Z,13.70
2023-03-16T03:47:28.076Z,13.90
2023-03-16T03:48:28.143Z,13.30
2023-03-16T03:49:27.954Z,13.60
2023-03-16T03:50:28.228Z,13.20
2023-03-16T03:51:28.119Z,13.60
2023-03-16T03:52:28.105Z,13.70
2023-03-16T03:53:28.106Z,14.20
2023-03-16T03:54:28.015Z,13.80
2023-03-16T03:55:28.020Z,14.20
2023-03-16T03:56:27.902Z,14.50
2023-03-16T03:57:27.892Z,14.40
2023-03-16T03:58:28.050Z,14.50
2023-03-16T03:59:28.008Z,14.50
2023-03-16T04:00:28.132Z,14.40
2023-03-16T04:01:28.114Z,13.90
2023-03-16T04:02:28.191Z,15.50
2023-03-16T04:03:28.083Z,15.20
2023-03-16T04:04:28.008Z,14.80
2023-03-16T04:05:27.828Z,14.70
2023-03-16T04:06:27.806Z,14.90
2023-03-16T04:07:27.944Z,14.90
2023-03-16T04:08:27.925Z,15.40
2023-03-16T04:09:27.914Z,14.70
2023-03-16T04:10:28.131Z,15.10
2023-03-16T04:11:27.895Z,14.70
2023-03-16T04:12:28.040Z,15.10
2023-03-16T04:13:27.876Z,15.40
2023-03-16T04:14:27.850Z,15.10
2023-03-16T04:15:27.697Z,15.00
2023-03-16T04:16:27.852Z,15.30
2023-03-16T04:17:27.976Z,15.20
2023-03-16T04:18:27.787Z,15.30
2023-03-16T04:19:27.768Z,16.00
2023-03-16T04:20:27.918Z,15.70
2023-03-16T04:21:27.740Z,15.60
2023-03-16T04:22:27.754Z,16.90
2023-03-16T04:23:27.916Z,16.80
2023-03-16T04:24:27.766Z,16.20
2023-03-16T04:25:27.779Z,15.60
2023-03-16T04:26:27.790Z,14.70
2023-03-16T04:27:27.547Z,14.40
2023-03-16T04:28:27.784Z,14.60
2023-03-16T04:29:27.783Z,14.40
2023-03-16T04:30:27.785Z,13.10
2023-03-16T04:31:27.702Z,13.60
2023-03-16T04:32:27.550Z,13.20
2023-03-16T04:33:27.680Z,11.90
2023-03-16T04:34:27.513Z,11.70
2023-03-16T04:35:27.639Z,11.80
2023-03-16T04:36:27.740Z,11.10
2023-03-16T04:37:27.655Z,10.30
2023-03-16T04:38:27.475Z,9.60
2023-03-16T04:39:27.657Z,9.20
2023-03-16T04:40:27.818Z,9.40
2023-03-16T04:41:27.711Z,8.40
2023-03-16T04:42:27.669Z,8.70
2023-03-16T04:43:27.618Z,8.10
2023-03-16T04:44:27.636Z,8.10
2023-03-16T04:45:27.389Z,8.40
2023-03-16T04:46:27.530Z,8.60
2023-03-16T04:47:27.367Z,7.70
2023-03-16T04:48:27.596Z,7.60
2023-03-16T04:49:27.550Z,7.60
2023-03-16T04:50:27.820Z,7.50
2023-03-16T04:51:27.391Z,7.90
2023-03-16T04:52:27.593Z,7.60
2023-03-16T04:53:27.474Z,8.40
2023-03-16T04:54:27.396Z,8.00
2023-03-16T04:55:27.797Z,7.80
2023-03-16T04:56:27.578Z,7.40
2023-03-16T04:57:27.593Z,7.60
2023-03-16T04:58:27.307Z,6.60
2023-03-16T04:59:27.311Z,7.30
2023-03-16T05:00:27.693Z,7.50
2023-03-16T05:01:27.486Z,7.20
2023-03-16T05:02:27.499Z,7.40
2023-03-16T05:03:27.380Z,7.60
2023-03-16T05:04:27.171Z,7.50
2023-03-16T05:05:27.366Z,7.90
2023-03-16T05:06:27.341Z,7.60
2023-03-16T05:07:27.339Z,7.00
2023-03-16T05:08:27.357Z,7.90
2023-03-16T05:09:27.303Z,7.40
2023-03-16T05:10:27.365Z,7.40
2023-03-16T05:11:27.065Z,7.70
2023-03-16T05:12:27.287Z,7.40
2023-03-16T05:13:27.253Z,7.80
2023-03-16T05:14:27.378Z,7.90
2023-03-16T05:15:27.241Z,7.70
2023-03-16T05:16:27.328Z,7.60
2023-03-16T05:17:27.015Z,7.40
2023-03-16T05:18:27.348Z,7.40
2023-03-16T05:19:27.294Z,7.50
2023-03-16T05:20:27.465Z,7.50
2023-03-16T05:21:27.187Z,7.40
2023-03-16T05:22:27.233Z,8.10
2023-03-16T05:23:27.201Z,7.30
2023-03-16T05:24:27.083Z,7.50
2023-03-16T05:25:27.259Z,7.10
2023-03-16T05:26:26.987Z,7.30
2023-03-16T05:27:26.970Z,6.60
2023-03-16T05:28:26.972Z,7.00
2023-03-16T05:29:27.233Z,7.10
2023-03-16T05:30:27.410Z,7.50
2023-03-16T05:31:27.138Z,7.30
2023-03-16T05:32:27.050Z,7.10
2023-03-16T05:33:27.048Z,7.10
2023-03-16T05:34:27.058Z,7.00
2023-03-16T05:35:27.119Z,7.50
2023-03-16T05:36:27.047Z,6.80
2023-03-16T05:37:26.840Z,7.40
2023-03-16T05:38:26.807Z,7.20
2023-03-16T05:39:26.895Z,7.30
2023-03-16T05:40:27.161Z,8.10
2023-03-16T05:41:26.898Z,8.70
2023-03-16T05:42:26.834Z,8.90
2023-03-16T05:43:26.854Z,9.00
2023-03-16T05:44:26.758Z,8.50
2023-03-16T05:45:27.039Z,8.80
2023-03-16T05:46:26.890Z,7.70
2023-03-16T05:47:26.779Z,8.20
2023-03-16T05:48:26.784Z,9.10
2023-03-16T05:49:26.868Z,9.00
2023-03-16T05:50:27.191Z,9.50
2023-03-16T05:51:26.879Z,9.20
2023-03-16T05:52:26.916Z,9.00
2023-03-16T05:53:26.734Z,8.50
2023-03-16T05:54:26.749Z,8.60
2023-03-16T05:55:26.682Z,8.50
2023-03-16T05:56:26.671Z,8.00
2023-03-16T05:57:26.942Z,8.60
2023-03-16T05:58:26.872Z,8.10
2023-03-16T05:59:26.861Z,8.10
2023-03-16T06:00:27.079Z,7.40
2023-03-16T06:01:26.789Z,7.60
2023-03-16T06:02:26.834Z,7.20
2023-03-16T06:03:26.613Z,7.10
2023-03-16T06:04:26.858Z,6.70
2023-03-16T06:05:26.563Z,6.10
2023-03-16T06:06:26.751Z,6.10
2023-03-16T06:07:28.835Z,6.20
2023-03-16T06:08:26.768Z,6.00
2023-03-16T06:09:26.530Z,6.00
2023-03-16T06:10:27.003Z,6.20
2023-03-16T06:11:27.070Z,5.90
2023-03-16T06:12:26.530Z,6.00
2023-03-16T06:13:26.680Z,5.60
2023-03-16T06:14:26.737Z,6.20
2023-03-16T06:15:26.654Z,6.30
2023-03-16T06:16:26.732Z,5.90
2023-03-16T06:17:26.625Z,5.70
2023-03-16T06:18:26.470Z,6.00
2023-03-16T06:19:26.606Z,6.00
2023-03-16T06:20:26.766Z,5.60
2023-03-16T06:21:26.594Z,6.00
2023-03-16T06:22:26.586Z,6.20
2023-03-16T06:23:26.579Z,6.40
2023-03-16T06:24:26.636Z,6.90
2023-03-16T06:25:26.409Z,6.50
2023-03-16T06:26:26.529Z,6.30
2023-03-16T06:27:26.449Z,6.30
2023-03-16T06:28:26.585Z,6.30
2023-03-16T06:29:26.578Z,6.80
2023-03-16T06:30:26.836Z,7.00
2023-03-16T06:31:26.579Z,7.00
2023-03-16T06:32:26.604Z,7.30
2023-03-16T06:33:26.510Z,7.20
2023-03-16T06:34:26.570Z,8.30
2023-03-16T06:35:26.472Z,8.30
2023-03-16T06:36:26.250Z,8.30
2023-03-16T06:37:26.520Z,8.50
2023-03-16T06:38:26.421Z,9.10
2023-03-16T06:39:26.213Z,9.80
2023-03-16T06:40:26.730Z,9.70
2023-03-16T06:41:26.229Z,10.30
2023-03-16T06:42:26.224Z,9.80
2023-03-16T06:43:26.197Z,9.60
2023-03-16T06:44:26.179Z,9.30
2023-03-16T06:45:26.217Z,9.70
2023-03-16T06:46:26.270Z,9.90
2023-03-16T06:47:26.358Z,9.90
2023-03-16T06:48:26.151Z,10.00
2023-03-16T06:49:26.137Z,9.80
2023-03-16T06:50:26.646Z,9.80
2023-03-16T06:51:26.144Z,9.30
2023-03-16T06:52:26.099Z,9.30
2023-03-16T06:53:26.140Z,9.70
2023-03-16T06:54:26.077Z,8.90
2023-03-16T06:55:26.111Z,9.00
2023-03-16T06:56:26.055Z,9.30
2023-03-16T06:57:26.066Z,9.50
2023-03-16T06:58:26.038Z,9.00
2023-03-16T06:59:26.050Z,9.50
2023-03-16T07:00:26.484Z,9.70
2023-03-16T07:01:26.103Z,10.20
2023-03-16T07:02:26.016Z,10.40
2023-03-16T07:03:25.983Z,10.50
2023-03-16T07:04:26.062Z,10.00
2023-03-16T07:05:25.981Z,10.00
2023-03-16T07:06:25.946Z,10.10
2023-03-16T07:07:26.009Z,10.10
2023-03-16T07:08:25.964Z,11.10
2023-03-16T07:09:25.960Z,11.70
2023-03-16T07:10:25.969Z,11.20
2023-03-16T07:11:25.934Z,10.30
2023-03-16T07:12:26.456Z,11.60
2023-03-16T07:13:26.088Z,11.00
2023-03-16T07:14:26.065Z,10.80
2023-03-16T07:15:25.879Z,9.40
2023-03-16T07:16:26.173Z,10.40
2023-03-16T07:17:26.091Z,8.90
2023-03-16T07:18:25.916Z,9.80
2023-03-16T07:19:25.998Z,9.30
2023-03-16T07:20:25.827Z,8.60
2023-03-16T07:21:25.809Z,7.60
2023-03-16T07:22:26.071Z,8.00
2023-03-16T07:23:25.819Z,8.00
2023-03-16T07:24:25.760Z,8.10
2023-03-16T07:25:25.786Z,8.10
2023-03-16T07:26:25.727Z,8.00
2023-03-16T07:27:25.936Z,7.70
2023-03-16T07:28:25.908Z,6.90
2023-03-16T07:29:26.130Z,6.20
2023-03-16T07:30:25.959Z,6.20
2023-03-16T07:31:26.093Z,6.10
2023-03-16T07:32:26.161Z,6.30
2023-03-16T07:33:26.020Z,6.00
2023-03-16T07:34:25.988Z,5.80
2023-03-16T07:35:25.951Z,5.30
2023-03-16T07:36:25.773Z,5.30
2023-03-16T07:37:25.998Z,4.70
2023-03-16T07:38:25.852Z,4.80
2023-03-16T07:39:25.832Z,4.70
2023-03-16T07:40:25.757Z,5.00
2023-03-16T07:41:25.682Z,5.20
2023-03-16T07:42:25.730Z,4.70
2023-03-16T07:43:25.914Z,4.80
2023-03-16T07:44:25.596Z,5.20
2023-03-16T07:45:26.226Z,4.80
2023-03-16T07:46:25.888Z,5.10
2023-03-16T07:47:26.661Z,4.60
2023-03-16T07:48:25.668Z,4.80
2023-03-16T07:49:25.557Z,5.10
2023-03-16T07:50:25.826Z,4.70
2023-03-16T07:51:25.805Z,4.90
2023-03-16T07:52:25.509Z,5.20
2023-03-16T07:53:25.545Z,4.90
2023-03-16T07:54:25.590Z,5.20
2023-03-16T07:55:25.506Z,5.00
2023-03-16T07:56:26.369Z,4.90
2023-03-16T07:57:25.419Z,5.10
2023-03-16T07:58:25.594Z,4.60
2023-03-16T07:59:25.559Z,5.00
2023-03-16T08:00:25.651Z,4.70
2023-03-16T08:01:25.447Z,4.60
2023-03-16T08:02:25.426Z,4.70
2023-03-16T08:03:25.363Z,5.10
2023-03-16T08:04:25.586Z,4.90
2023-03-16T08:05:27.628Z,4.60
2023-03-16T08:06:25.407Z,4.70
2023-03-16T08:07:25.333Z,4.60
2023-03-16T08:08:25.338Z,4.60
2023-03-16T08:09:25.327Z,4.70
2023-03-16T08:10:25.283Z,4.70
2023-03-16T08:11:25.510Z,4.30
2023-03-16T08:12:25.563Z,4.30
2023-03-16T08:13:25.279Z,4.20
2023-03-16T08:14:25.255Z,4.00
2023-03-16T08:15:25.273Z,4.60
2023-03-16T08:16:25.339Z,4.60
2023-03-16T08:17:25.276Z,4.20
2023-03-16T08:18:25.494Z,4.90
2023-03-16T08:19:25.487Z,4.60
2023-03-16T08:20:25.460Z,4.20
2023-03-16T08:21:25.288Z,4.30
2023-03-16T08:22:25.398Z,4.40
2023-03-16T08:23:25.378Z,4.40
2023-03-16T08:24:25.204Z,4.30
2023-03-16T08:25:25.334Z,4.80
2023-03-16T08:26:25.241Z,5.30
2023-03-16T08:27:25.145Z,5.60
2023-03-16T08:28:25.355Z,5.50
2023-03-16T08:29:25.116Z,5.20
2023-03-16T08:30:25.057Z,5.10
2023-03-16T08:31:25.194Z,5.30
2023-03-16T08:32:25.137Z,5.10
2023-03-16T08:33:25.114Z,5.10
2023-03-16T08:34:25.061Z,5.10
2023-03-16T08:35:25.027Z,5.10
2023-03-16T08:36:25.009Z,4.80
2023-03-16T08:37:25.023Z,5.00
2023-03-16T08:38:25.008Z,4.60
2023-03-16T08:39:25.026Z,4.40
2023-03-16T08:40:25.037Z,4.40
2023-03-16T08:41:25.010Z,4.40
2023-03-16T08:42:24.965Z,4.30
2023-03-16T08:43:24.957Z,4.30
2023-03-16T08:44:24.944Z,4.20
2023-03-16T08:45:24.994Z,3.90
2023-03-16T08:46:25.018Z,3.70
2023-03-16T08:47:24.937Z,3.80
2023-03-16T08:48:25.049Z,3.80
2023-03-16T08:49:24.914Z,4.00
2023-03-16T08:50:25.109Z,3.80
2023-03-16T08:51:24.866Z,3.80
2023-03-16T08:52:24.850Z,3.50
2023-03-16T08:53:24.943Z,3.50
2023-03-16T08:54:24.849Z,3.40
2023-03-16T08:55:24.879Z,3.90
2023-03-16T08:56:24.815Z,3.60
2023-03-16T08:57:24.854Z,3.70
2023-03-16T08:58:25.145Z,3.70
2023-03-16T08:59:30.180Z,3.60
2023-03-16T09:00:24.848Z,3.90
2023-03-16T09:01:24.864Z,3.70
2023-03-16T09:02:24.796Z,3.70
2023-03-16T09:03:24.919Z,3.90
2023-03-16T09:04:24.858Z,3.80
2023-03-16T09:05:24.725Z,4.00
2023-03-16T09:06:24.934Z,4.20
2023-03-16T09:07:24.722Z,3.80
2023-03-16T09:08:24.924Z,4.10
2023-03-16T09:09:24.676Z,4.00
2023-03-16T09:10:24.660Z,4.20
2023-03-16T09:11:24.667Z,4.20
2023-03-16T09:12:24.699Z,4.20
2023-03-16T09:13:24.640Z,4.90
2023-03-16T09:14:24.643Z,4.60
2023-03-16T09:15:24.636Z,4.10
2023-03-16T09:16:24.995Z,4.20
2023-03-16T09:17:24.984Z,4.40
2023-03-16T09:18:24.590Z,3.80
2023-03-16T09:19:24.612Z,3.70
2023-03-16T09:20:30.054Z,4.00
2023-03-16T09:21:24.795Z,4.10
2023-03-16T09:22:24.627Z,2.80
2023-03-16T09:23:24.587Z,3.20
2023-03-16T09:24:24.590Z,4.00
2023-03-16T09:25:24.787Z,3.90
2023-03-16T09:26:24.556Z,3.90
2023-03-16T09:27:24.707Z,4.10
2023-03-16T09:28:24.658Z,4.10
2023-03-16T09:29:24.542Z,3.80
2023-03-16T09:30:24.645Z,3.30
2023-03-16T09:31:24.689Z,2.30
2023-03-16T09:32:24.568Z,2.50
2023-03-16T09:33:24.490Z,2.90
2023-03-16T09:35:24.498Z,2.40
2023-03-16T09:36:24.389Z,2.00
2023-03-16T09:37:24.649Z,2.30
2023-03-16T09:38:24.395Z,2.10
2023-03-16T09:39:24.440Z,2.40
2023-03-16T09:40:24.369Z,2.20
2023-03-16T09:41:24.346Z,2.40
2023-03-16T09:42:24.496Z,2.30
2023-03-16T09:43:24.465Z,2.40
2023-03-16T09:44:24.666Z,2.50
2023-03-16T09:45:24.324Z,2.20
2023-03-16T09:46:24.669Z,2.20
2023-03-16T09:47:24.660Z,2.40
2023-03-16T09:48:24.417Z,2.50
2023-03-16T09:49:24.512Z,2.20
2023-03-16T09:50:26.485Z,2.10
2023-03-16T09:51:24.275Z,2.00
2023-03-16T09:52:24.610Z,2.30
2023-03-16T09:53:24.586Z,2.20
2023-03-16T09:54:24.220Z,3.10
2023-03-16T09:55:24.229Z,2.80
2023-03-16T09:56:24.500Z,2.50
2023-03-16T09:57:24.464Z,2.50
2023-03-16T09:58:24.406Z,2.60
2023-03-16T09:59:24.350Z,2.30
2023-03-16T10:00:24.393Z,2.60
2023-03-16T10:01:24.236Z,2.10
2023-03-16T10:02:24.180Z,2.10
2023-03-16T10:03:24.142Z,2.20
2023-03-16T10:04:24.174Z,2.50
2023-03-16T10:05:24.091Z,2.10
2023-03-16T10:06:24.131Z,2.30
2023-03-16T10:07:24.084Z,2.40
2023-03-16T10:08:24.094Z,2.40
2023-03-16T10:09:24.130Z,2.20
2023-03-16T10:10:24.186Z,2.20
2023-03-16T10:11:24.097Z,2.30
2023-03-16T10:12:24.069Z,2.40
2023-03-16T10:13:24.027Z,2.30
2023-03-16T10:14:24.024Z,2.40
2023-03-16T10:15:24.005Z,2.10
2023-03-16T10:16:24.035Z,2.30
2023-03-16T10:17:24.002Z,2.10
2023-03-16T10:18:23.982Z,2.50
2023-03-16T10:19:23.983Z,2.30
2023-03-16T10:20:24.019Z,2.40
2023-03-16T10:21:23.926Z,2.30
2023-03-16T10:22:23.944Z,2.30
2023-03-16T10:23:23.963Z,2.00
2023-03-16T10:24:23.910Z,2.10
2023-03-16T10:25:23.898Z,2.10
2023-03-16T10:26:23.927Z,2.30
2023-03-16T10:27:23.878Z,2.30
2023-03-16T10:28:23.898Z,2.20
2023-03-16T10:29:23.853Z,2.40
2023-03-16T10:30:23.882Z,2.20
2023-03-16T10:31:23.838Z,2.30
2023-03-16T10:32:23.876Z,2.30
2023-03-16T10:33:23.826Z,2.30
2023-03-16T10:34:23.811Z,2.00
2023-03-16T10:35:23.802Z,2.30
2023-03-16T10:36:23.825Z,2.50
2023-03-16T10:37:23.818Z,2.20
2023-03-16T10:38:23.795Z,2.60
2023-03-16T10:39:23.764Z,2.50
2023-03-16T10:40:23.771Z,2.30
2023-03-16T10:41:23.744Z,2.20
2023-03-16T10:42:23.741Z,2.20
2023-03-16T10:43:23.739Z,2.30
2023-03-16T10:44:23.691Z,2.30
2023-03-16T10:45:23.726Z,2.40
2023-03-16T10:46:23.852Z,2.40
2023-03-16T10:47:23.699Z,2.20
2023-03-16T10:48:23.682Z,2.40
2023-03-16T10:49:23.658Z,2.40
2023-03-16T10:50:23.685Z,2.40
2023-03-16T10:51:23.669Z,2.30
2023-03-16T10:52:23.631Z,2.40
2023-03-16T10:53:23.653Z,2.40
2023-03-16T10:54:23.649Z,2.50
2023-03-16T10:55:23.637Z,2.30
2023-03-16T10:56:23.596Z,2.20
2023-03-16T10:57:23.589Z,2.00
2023-03-16T10:58:23.580Z,2.10
2023-03-16T10:59:23.598Z,2.20
2023-03-16T11:00:23.547Z,2.10
2023-03-16T11:01:23.594Z,2.20
2023-03-16T11:02:23.537Z,2.00
2023-03-16T11:03:23.551Z,2.20
2023-03-16T11:04:23.537Z,2.10
2023-03-16T11:05:23.574Z,2.00
2023-03-16T11:06:23.489Z,2.10
2023-03-16T11:07:23.530Z,2.40
2023-03-16T11:08:23.467Z,2.30
2023-03-16T11:09:23.456Z,2.20
2023-03-16T11:10:23.469Z,2.30
2023-03-16T11:11:23.452Z,2.10
2023-03-16T11:12:23.433Z,2.10
2023-03-16T11:13:23.436Z,1.90
2023-03-16T11:14:23.407Z,2.00
2023-03-16T11:15:26.219Z,2.20
2023-03-16T11:16:23.473Z,2.00
2023-03-16T11:17:23.391Z,2.00
2023-03-16T11:18:23.383Z,2.30
2023-03-16T11:19:23.404Z,2.10
2023-03-16T11:20:23.353Z,2.20
2023-03-16T11:21:23.350Z,2.30
2023-03-16T11:22:23.397Z,2.30
2023-03-16T11:23:23.372Z,2.10
2023-03-16T11:24:23.347Z,2.00
2023-03-16T11:25:23.315Z,2.10
2023-03-16T11:26:23.335Z,2.10
2023-03-16T11:27:23.289Z,2.00
2023-03-16T11:28:23.299Z,2.30
2023-03-16T11:29:23.310Z,2.10
2023-03-16T11:30:23.288Z,2.30
2023-03-16T11:31:23.425Z,2.20
2023-03-16T11:32:23.722Z,2.30
2023-03-16T11:33:23.361Z,2.20
2023-03-16T11:34:23.254Z,2.30
2023-03-16T11:35:23.391Z,2.40
2023-03-16T11:36:23.317Z,2.30
2023-03-16T11:37:23.376Z,2.20
2023-03-16T11:38:23.245Z,2.20
2023-03-16T11:39:23.160Z,2.30
2023-03-16T11:40:23.180Z,2.70
2023-03-16T11:41:23.156Z,2.30
2023-03-16T11:42:23.183Z,2.30
2023-03-16T11:43:23.147Z,2.50
2023-03-16T11:44:23.330Z,2.20
2023-03-16T11:45:23.110Z,2.40
2023-03-16T11:46:23.258Z,2.20
2023-03-16T11:47:23.180Z,2.20
2023-03-16T11:48:23.432Z,2.30
2023-03-16T11:49:23.250Z,2.20
2023-03-16T11:50:23.173Z,2.10
2023-03-16T11:51:23.162Z,2.20
2023-03-16T11:52:23.145Z,2.20
2023-03-16T11:53:23.406Z,2.10
2023-03-16T11:54:23.386Z,2.20
2023-03-16T11:55:23.341Z,2.40
2023-03-16T11:56:23.311Z,2.10
2023-03-16T11:57:23.274Z,2.20
2023-03-16T11:58:23.353Z,2.10
2023-03-16T11:59:23.213Z,2.20
2023-03-16T12:00:23.218Z,1.90
2023-03-16T12:01:23.104Z,1.80
2023-03-16T12:02:23.274Z,1.80
2023-03-16T12:03:23.319Z,1.90
2023-03-16T12:04:23.314Z,2.00
2023-03-16T12:05:23.154Z,1.80
2023-03-16T12:06:23.905Z,2.10
2023-03-16T12:07:23.134Z,1.90
2023-03-16T12:08:23.196Z,1.90
2023-03-16T12:09:23.186Z,1.60
2023-03-16T12:10:22.886Z,1.70
2023-03-16T12:11:22.959Z,2.10
2023-03-16T12:12:22.980Z,1.70
2023-03-16T12:13:22.996Z,1.80
2023-03-16T12:14:23.001Z,1.80
2023-03-16T12:15:22.989Z,1.80
2023-03-16T12:16:23.330Z,1.80
2023-03-16T12:17:23.033Z,2.00
2023-03-16T12:18:23.119Z,2.10
2023-03-16T12:19:23.133Z,2.00
2023-03-16T12:20:22.803Z,1.80
2023-03-16T12:21:23.081Z,1.90
2023-03-16T12:22:23.063Z,1.90
2023-03-16T12:23:23.059Z,2.10
2023-03-16T12:24:22.854Z,2.00
2023-03-16T12:25:22.781Z,2.00
2023-03-16T12:26:22.765Z,2.10
2023-03-16T12:27:23.021Z,2.00
2023-03-16T12:28:22.977Z,2.20
2023-03-16T12:29:22.946Z,2.00
2023-03-16T12:30:22.649Z,2.30
2023-03-16T12:31:22.956Z,2.10
2023-03-16T12:32:23.053Z,1.90
2023-03-16T12:33:23.029Z,2.10
2023-03-16T12:34:22.591Z,2.10
2023-03-16T12:35:22.770Z,2.10
2023-03-16T12:36:22.784Z,2.10
2023-03-16T12:37:22.770Z,2.30
2023-03-16T12:38:22.780Z,2.40
2023-03-16T12:39:22.787Z,2.20
2023-03-16T12:40:22.770Z,2.30
2023-03-16T12:41:22.763Z,2.30
2023-03-16T12:42:22.756Z,2.10
2023-03-16T12:43:22.744Z,2.10
2023-03-16T12:44:22.510Z,2.30
2023-03-16T12:45:22.711Z,2.20
2023-03-16T12:46:22.610Z,2.20
2023-03-16T12:47:22.461Z,2.00
2023-03-16T12:48:22.475Z,2.30
2023-03-16T12:49:22.550Z,2.40
2023-03-16T12:50:22.444Z,2.40
2023-03-16T12:51:22.417Z,2.40
2023-03-16T12:52:22.407Z,2.40
2023-03-16T12:53:22.402Z,2.40
2023-03-16T12:54:22.416Z,2.30
2023-03-16T12:55:22.404Z,2.50
2023-03-16T12:56:22.372Z,2.30
2023-03-16T12:57:22.355Z,2.20
2023-03-16T12:58:22.353Z,2.40
2023-03-16T12:59:22.332Z,2.40
2023-03-16T13:00:22.357Z,2.60
2023-03-16T13:01:22.380Z,2.60
2023-03-16T13:02:22.431Z,2.50
2023-03-16T13:03:22.302Z,2.30
2023-03-16T13:04:22.454Z,2.50
2023-03-16T13:05:22.352Z,2.40
2023-03-16T13:06:22.315Z,2.50
2023-03-16T13:07:22.259Z,2.50
2023-03-16T13:08:22.255Z,2.10
2023-03-16T13:09:22.217Z,2.40
2023-03-16T13:10:22.296Z,2.70
2023-03-16T13:11:22.246Z,2.50
2023-03-16T13:12:22.241Z,2.40
2023-03-16T13:13:22.208Z,2.60
2023-03-16T13:14:22.213Z,2.20